createdAt,value
2018-04-24T00:00:40.737Z,61.84
2018-04-24T00:01:46.509Z,61.89
2018-04-24T00:02:52.282Z,61.84
2018-04-24T00:03:58.188Z,61.92
2018-04-24T00:05:04.030Z,61.89
2018-04-24T00:06:09.855Z,61.96
2018-04-24T00:07:16.771Z,61.97
2018-04-24T00:08:22.588Z,61.91
2018-04-24T00:09:28.391Z,61.81
2018-04-24T00:10:35.025Z,61.79
2018-04-24T00:11:40.854Z,61.77
2018-04-24T00:12:46.395Z,61.84
2018-04-24T00:13:52.167Z,61.93
2018-04-24T00:14:57.953Z,62.03
2018-04-24T00:16:04.496Z,62.09
2018-04-24T00:17:10.258Z,62.03
2018-04-24T00:18:16.041Z,62.10
2018-04-24T00:19:21.806Z,62.04
2018-04-24T00:20:27.604Z,62.00
2018-04-24T00:21:33.366Z,62.01
2018-04-24T00:22:39.235Z,62.05
2018-04-24T00:23:45.034Z,62.07
2018-04-24T00:24:50.899Z,62.14
2018-04-24T00:25:56.686Z,62.16
2018-04-24T00:27:03.224Z,62.41
2018-04-24T00:28:08.997Z,62.49
2018-04-24T00:29:15.567Z,62.50
2018-04-24T00:30:21.347Z,62.59
2018-04-24T00:31:27.153Z,62.67
2018-04-24T00:32:32.925Z,62.77
2018-04-24T00:33:38.702Z,62.95
2018-04-24T00:34:44.477Z,62.97
2018-04-24T00:35:51.014Z,62.99
2018-04-24T00:36:56.815Z,63.06
2018-04-24T00:38:02.607Z,63.22
2018-04-24T00:39:09.175Z,63.26
2018-04-24T00:40:15.711Z,63.24
2018-04-24T00:41:21.490Z,63.34
2018-04-24T00:42:27.275Z,63.44
2018-04-24T00:43:33.065Z,63.50
2018-04-24T00:45:47.995Z,63.69
2018-04-24T00:46:53.923Z,63.59
2018-04-24T00:47:59.723Z,63.57
2018-04-24T00:49:05.227Z,63.78
2018-04-24T00:50:11.167Z,63.81
2018-04-24T00:51:17.729Z,63.75
2018-04-24T00:52:23.513Z,63.91
2018-04-24T00:53:41.063Z,63.96
2018-04-24T00:54:46.834Z,63.94
2018-04-24T00:55:52.627Z,64.06
2018-04-24T00:56:58.398Z,64.06
2018-04-24T00:58:04.167Z,64.22
2018-04-24T00:59:10.732Z,64.24
2018-04-24T01:00:17.291Z,64.22
2018-04-24T01:01:23.875Z,64.45
2018-04-24T01:02:29.633Z,64.49
2018-04-24T01:03:35.400Z,64.53
2018-04-24T01:04:41.196Z,64.66
2018-04-24T01:05:46.966Z,64.78
2018-04-24T01:06:52.732Z,64.78
2018-04-24T01:07:58.499Z,64.77
2018-04-24T01:09:03.491Z,64.81
2018-04-24T01:10:09.273Z,64.90
2018-04-24T01:11:15.822Z,64.94
2018-04-24T01:12:21.596Z,65.02
2018-04-24T01:13:27.362Z,65.04
2018-04-24T01:14:33.127Z,65.01
2018-04-24T01:15:38.930Z,65.09
2018-04-24T01:16:44.706Z,65.17
2018-04-24T01:17:50.478Z,65.29
2018-04-24T01:18:57.015Z,65.43
2018-04-24T01:20:02.779Z,65.47
2018-04-24T01:21:09.135Z,65.55
2018-04-24T01:22:15.704Z,65.58
2018-04-24T01:23:22.227Z,65.58
2018-04-24T01:24:28.005Z,65.65
2018-04-24T01:25:34.561Z,65.66
2018-04-24T01:26:41.118Z,65.76
2018-04-24T01:27:47.652Z,65.81
2018-04-24T01:28:53.231Z,65.80
2018-04-24T01:29:59.763Z,65.71
2018-04-24T01:31:05.522Z,65.77
2018-04-24T01:32:12.089Z,65.78
2018-04-24T01:33:18.635Z,65.80
2018-04-24T01:34:25.175Z,65.91
2018-04-24T01:35:31.156Z,66.00
2018-04-24T01:36:37.691Z,66.03
2018-04-24T01:37:43.485Z,66.09
2018-04-24T01:38:50.023Z,66.06
2018-04-24T01:39:55.798Z,66.23
2018-04-24T01:41:01.564Z,66.25
2018-04-24T01:42:07.010Z,66.18
2018-04-24T01:43:12.799Z,66.28
2018-04-24T01:44:18.572Z,66.24
2018-04-24T01:45:24.337Z,66.23
2018-04-24T01:46:29.873Z,66.16
2018-04-24T01:47:35.431Z,66.25
2018-04-24T01:48:41.995Z,66.25
2018-04-24T01:49:48.550Z,66.31
2018-04-24T01:50:55.091Z,66.34
2018-04-24T01:52:00.878Z,66.28
2018-04-24T01:53:06.643Z,66.20
2018-04-24T01:54:12.429Z,66.21
2018-04-24T01:55:18.977Z,66.30
2018-04-24T01:56:26.064Z,66.36
2018-04-24T01:57:32.605Z,66.45
2018-04-24T01:58:38.377Z,66.51
2018-04-24T01:59:44.166Z,66.58
2018-04-24T02:00:49.960Z,66.69
2018-04-24T02:01:56.492Z,66.70
2018-04-24T02:03:01.935Z,66.75
2018-04-24T02:04:07.705Z,66.77
2018-04-24T02:05:14.251Z,66.78
2018-04-24T02:06:20.554Z,66.79
2018-04-24T02:07:26.114Z,66.82
2018-04-24T02:08:31.885Z,66.94
2018-04-24T02:09:38.416Z,67.06
2018-04-24T02:10:44.218Z,67.07
2018-04-24T02:11:49.983Z,67.05
2018-04-24T02:12:55.756Z,67.09
2018-04-24T02:14:01.287Z,67.04
2018-04-24T02:15:07.049Z,67.00
2018-04-24T02:16:13.611Z,66.97
2018-04-24T02:17:20.152Z,67.06
2018-04-24T02:18:25.932Z,66.94
2018-04-24T02:19:31.703Z,66.86
2018-04-24T02:20:37.516Z,67.09
2018-04-24T02:21:43.313Z,67.12
2018-04-24T02:22:49.118Z,67.08
2018-04-24T02:23:54.886Z,66.92
2018-04-24T02:25:00.697Z,66.91
2018-04-24T02:26:06.664Z,67.08
2018-04-24T02:27:12.461Z,67.24
2018-04-24T02:28:18.994Z,67.20
2018-04-24T02:29:24.767Z,67.07
2018-04-24T02:30:30.540Z,67.00
2018-04-24T02:31:36.299Z,67.20
2018-04-24T02:32:41.885Z,67.30
2018-04-24T02:33:48.421Z,67.39
2018-04-24T02:34:54.203Z,67.26
2018-04-24T02:35:59.977Z,67.32
2018-04-24T02:37:05.745Z,67.45
2018-04-24T02:38:11.413Z,67.55
2018-04-24T02:39:17.947Z,67.68
2018-04-24T02:40:23.815Z,67.75
2018-04-24T02:41:29.738Z,67.67
2018-04-24T02:42:35.505Z,67.54
2018-04-24T02:43:42.075Z,67.42
2018-04-24T02:44:47.863Z,67.52
2018-04-24T02:45:53.664Z,67.67
2018-04-24T02:46:59.444Z,67.73
2018-04-24T02:48:04.876Z,67.50
2018-04-24T02:49:10.660Z,67.35
2018-04-24T02:50:17.208Z,67.59
2018-04-24T02:51:23.747Z,67.65
2018-04-24T02:52:29.511Z,67.70
2018-04-24T02:53:36.041Z,67.81
2018-04-24T02:54:41.879Z,67.90
2018-04-24T02:55:47.649Z,67.93
2018-04-24T02:56:54.929Z,67.91
2018-04-24T02:58:00.703Z,67.99
2018-04-24T02:59:06.141Z,67.97
2018-04-24T03:00:11.930Z,68.07
2018-04-24T03:01:17.698Z,68.11
2018-04-24T03:02:24.247Z,68.24
2018-04-24T03:03:30.026Z,68.22
2018-04-24T03:04:35.791Z,68.26
2018-04-24T03:05:41.591Z,68.22
2018-04-24T03:06:47.375Z,68.35
2018-04-24T03:07:53.148Z,68.36
2018-04-24T03:08:58.920Z,68.48
2018-04-24T03:10:04.130Z,68.45
2018-04-24T03:11:10.695Z,68.44
2018-04-24T03:12:17.244Z,68.30
2018-04-24T03:13:23.025Z,68.32
2018-04-24T03:14:28.796Z,68.24
2018-04-24T03:15:34.566Z,68.22
2018-04-24T03:16:41.135Z,68.22
2018-04-24T03:17:46.900Z,68.27
2018-04-24T03:18:52.667Z,68.14
2018-04-24T03:19:58.444Z,68.15
2018-04-24T03:21:04.214Z,68.07
2018-04-24T03:22:10.770Z,68.01
2018-04-24T03:23:17.356Z,68.04
2018-04-24T03:24:23.124Z,68.10
2018-04-24T03:25:28.915Z,68.18
2018-04-24T03:26:35.452Z,68.27
2018-04-24T03:27:41.263Z,68.35
2018-04-24T03:28:47.348Z,68.35
2018-04-24T03:29:53.138Z,68.34
2018-04-24T03:30:58.908Z,68.42
2018-04-24T03:32:04.675Z,68.41
2018-04-24T03:33:10.467Z,68.38
2018-04-24T03:34:16.457Z,68.35
2018-04-24T03:35:22.230Z,68.34
2018-04-24T03:36:28.763Z,68.42
2018-04-24T03:37:34.587Z,68.27
2018-04-24T03:38:40.373Z,68.17
2018-04-24T03:39:46.145Z,68.23
2018-04-24T03:40:51.914Z,68.32
2018-04-24T03:41:57.938Z,68.19
2018-04-24T03:43:03.704Z,68.24
2018-04-24T03:44:09.547Z,68.16
2018-04-24T03:45:14.750Z,68.15
2018-04-24T03:46:20.523Z,68.04
2018-04-24T03:47:26.303Z,68.06
2018-04-24T03:48:32.835Z,68.08
2018-04-24T03:49:38.643Z,68.16
2018-04-24T03:50:44.414Z,68.10
2018-04-24T03:51:50.182Z,68.12
2018-04-24T03:52:56.721Z,68.14
2018-04-24T03:54:02.499Z,68.13
2018-04-24T03:55:08.287Z,68.13
2018-04-24T03:56:14.062Z,68.04
2018-04-24T03:57:20.609Z,67.90
2018-04-24T03:58:26.586Z,67.84
2018-04-24T03:59:33.158Z,68.02
2018-04-24T04:00:39.008Z,68.10
2018-04-24T04:01:44.772Z,68.21
2018-04-24T04:02:50.540Z,68.40
2018-04-24T04:03:56.327Z,68.55
2018-04-24T04:05:02.128Z,68.47
2018-04-24T04:06:07.938Z,68.45
2018-04-24T04:07:13.718Z,68.42
2018-04-24T04:08:20.495Z,68.46
2018-04-24T04:09:27.040Z,68.35
2018-04-24T04:10:32.812Z,68.32
2018-04-24T04:11:38.653Z,68.30
2018-04-24T04:12:45.186Z,68.24
2018-04-24T04:13:51.011Z,68.31
2018-04-24T04:14:56.792Z,68.30
2018-04-24T04:16:03.383Z,68.24
2018-04-24T04:17:27.738Z,68.18
2018-04-24T04:18:51.226Z,68.35
2018-04-24T04:20:14.177Z,68.34
2018-04-24T04:21:37.535Z,68.42
2018-04-24T04:23:00.367Z,68.45
2018-04-24T04:24:23.082Z,68.33
2018-04-24T04:25:28.853Z,68.32
2018-04-24T04:26:34.621Z,68.29
2018-04-24T04:27:40.406Z,68.23
2018-04-24T04:28:46.182Z,68.26
2018-04-24T04:29:52.153Z,68.18
2018-04-24T04:30:57.935Z,68.13
2018-04-24T04:32:03.747Z,68.17
2018-04-24T04:33:09.520Z,68.17
2018-04-24T04:34:15.281Z,68.11
2018-04-24T04:35:21.059Z,67.93
2018-04-24T04:36:26.843Z,67.87
2018-04-24T04:37:33.228Z,67.80
2018-04-24T04:38:38.991Z,67.73
2018-04-24T04:39:44.783Z,67.61
2018-04-24T04:40:51.313Z,67.48
2018-04-24T04:41:57.093Z,67.34
2018-04-24T04:43:02.891Z,67.18
2018-04-24T04:44:08.455Z,67.05
2018-04-24T04:45:14.998Z,66.86
2018-04-24T04:46:21.544Z,66.67
2018-04-24T04:47:27.316Z,66.46
2018-04-24T04:48:33.924Z,66.34
2018-04-24T04:49:39.730Z,66.13
2018-04-24T04:50:46.259Z,66.21
2018-04-24T04:51:52.800Z,66.02
2018-04-24T04:52:58.571Z,65.78
2018-04-24T04:54:05.144Z,65.50
2018-04-24T04:55:11.693Z,65.34
2018-04-24T04:56:17.489Z,65.08
2018-04-24T04:57:23.258Z,64.90
2018-04-24T04:58:29.027Z,64.56
2018-04-24T04:59:35.583Z,64.27
2018-04-24T05:00:42.156Z,64.01
2018-04-24T05:01:48.686Z,63.88
2018-04-24T05:02:54.450Z,63.81
2018-04-24T05:04:01.003Z,63.76
2018-04-24T05:05:07.566Z,63.72
2018-04-24T05:06:14.311Z,63.71
2018-04-24T05:07:20.841Z,63.84
2018-04-24T05:08:26.610Z,63.88
2018-04-24T05:09:33.895Z,63.84
2018-04-24T05:10:39.685Z,63.86
2018-04-24T05:11:45.458Z,63.83
2018-04-24T05:12:51.228Z,63.82
2018-04-24T05:13:57.000Z,63.83
2018-04-24T05:15:02.758Z,63.87
2018-04-24T05:16:08.551Z,63.95
2018-04-24T05:17:14.311Z,63.86
2018-04-24T05:18:20.886Z,64.01
2018-04-24T05:19:26.646Z,64.06
2018-04-24T05:20:32.479Z,64.03
2018-04-24T05:21:38.375Z,64.10
2018-04-24T05:22:44.155Z,64.08
2018-04-24T05:23:50.457Z,63.99
2018-04-24T05:24:56.215Z,63.94
2018-04-24T05:26:01.999Z,63.92
2018-04-24T05:27:07.779Z,63.95
2018-04-24T05:28:13.552Z,63.86
2018-04-24T05:29:19.964Z,63.69
2018-04-24T05:30:25.734Z,63.70
2018-04-24T05:31:31.498Z,63.71
2018-04-24T05:32:38.065Z,63.65
2018-04-24T05:33:44.626Z,63.67
2018-04-24T05:34:51.159Z,63.69
2018-04-24T05:35:56.924Z,63.67
2018-04-24T05:37:03.478Z,63.61
2018-04-24T05:38:09.254Z,63.61
2018-04-24T05:39:15.027Z,63.50
2018-04-24T05:40:20.944Z,63.49
2018-04-24T05:41:26.736Z,63.32
2018-04-24T05:42:33.297Z,63.21
2018-04-24T05:43:39.092Z,63.14
2018-04-24T05:44:44.882Z,62.99
2018-04-24T05:45:50.658Z,62.83
2018-04-24T05:46:56.423Z,62.62
2018-04-24T05:48:02.199Z,62.33
2018-04-24T05:49:08.018Z,62.13
2018-04-24T05:50:13.787Z,61.98
2018-04-24T05:51:20.322Z,61.79
2018-04-24T05:52:26.178Z,61.72
2018-04-24T05:53:32.062Z,61.56
2018-04-24T05:54:38.623Z,61.46
2018-04-24T05:55:44.388Z,61.48
2018-04-24T05:56:50.161Z,61.42
2018-04-24T05:57:55.650Z,61.44
2018-04-24T05:59:01.591Z,61.46
2018-04-24T06:00:07.369Z,61.62
2018-04-24T06:01:13.155Z,61.68
2018-04-24T06:02:19.686Z,61.82
2018-04-24T06:03:25.460Z,61.90
2018-04-24T06:04:31.241Z,62.03
2018-04-24T06:05:37.056Z,62.13
2018-04-24T06:06:43.596Z,62.31
2018-04-24T06:07:49.357Z,62.27
2018-04-24T06:08:55.894Z,62.33
2018-04-24T06:10:02.438Z,62.48
2018-04-24T06:11:08.233Z,62.46
2018-04-24T06:12:13.993Z,62.46
2018-04-24T06:13:19.773Z,62.56
2018-04-24T06:14:25.542Z,62.61
2018-04-24T06:15:32.089Z,62.66
2018-04-24T06:16:37.910Z,62.69
2018-04-24T06:17:43.873Z,62.70
2018-04-24T06:18:49.643Z,62.68
2018-04-24T06:19:56.170Z,62.68
2018-04-24T06:21:01.952Z,62.48
2018-04-24T06:22:07.740Z,62.39
2018-04-24T06:23:13.507Z,62.39
2018-04-24T06:24:20.059Z,62.24
2018-04-24T06:25:25.872Z,62.16
2018-04-24T06:26:31.640Z,62.05
2018-04-24T06:27:37.441Z,61.92
2018-04-24T06:28:43.206Z,61.79
2018-04-24T06:29:48.978Z,61.56
2018-04-24T06:30:54.767Z,61.19
2018-04-24T06:32:00.540Z,61.07
2018-04-24T06:33:06.333Z,60.62
2018-04-24T06:34:12.102Z,60.28
2018-04-24T06:35:17.889Z,59.76
2018-04-24T06:36:24.415Z,59.42
2018-04-24T06:37:30.185Z,59.12
2018-04-24T06:38:36.780Z,58.70
2018-04-24T06:39:42.546Z,58.29
2018-04-24T06:40:48.323Z,57.53
2018-04-24T06:41:54.092Z,57.06
2018-04-24T06:43:01.020Z,56.64
2018-04-24T06:44:06.831Z,56.10
2018-04-24T06:45:12.681Z,55.07
2018-04-24T06:46:18.461Z,54.46
2018-04-24T06:47:24.247Z,53.38
2018-04-24T06:48:31.009Z,52.33
2018-04-24T06:49:36.957Z,51.33
2018-04-24T06:50:42.749Z,50.29
2018-04-24T06:51:48.523Z,49.45
2018-04-24T06:52:55.067Z,48.85
2018-04-24T06:54:00.883Z,48.64
2018-04-24T06:55:06.343Z,48.11
2018-04-24T06:56:12.419Z,47.31
2018-04-24T06:57:18.219Z,46.01
2018-04-24T06:58:24.011Z,44.78
2018-04-24T06:59:29.788Z,43.61
2018-04-24T07:00:35.690Z,42.49
2018-04-24T07:01:41.726Z,41.65
2018-04-24T07:02:48.371Z,40.79
2018-04-24T07:03:54.271Z,40.32
2018-04-24T07:05:00.105Z,39.99
2018-04-24T07:06:05.891Z,40.05
2018-04-24T07:07:11.666Z,40.02
2018-04-24T07:08:18.295Z,39.79
2018-04-24T07:09:24.065Z,39.29
2018-04-24T07:10:30.604Z,38.93
2018-04-24T07:11:37.903Z,38.98
2018-04-24T07:12:44.444Z,38.67
2018-04-24T07:13:51.723Z,37.89
2018-04-24T07:14:57.495Z,37.59
2018-04-24T07:16:03.308Z,37.26
2018-04-24T07:17:09.098Z,37.27
2018-04-24T07:18:14.863Z,36.88
2018-04-24T07:20:38.752Z,36.19
2018-04-24T07:21:44.530Z,35.95
2018-04-24T07:22:51.105Z,35.86
2018-04-24T07:23:56.949Z,35.61
2018-04-24T07:25:02.710Z,35.12
2018-04-24T07:26:08.500Z,35.11
2018-04-24T07:27:15.107Z,35.11
2018-04-24T07:28:21.086Z,35.21
2018-04-24T07:29:26.868Z,35.77
2018-04-24T07:30:32.646Z,35.98
2018-04-24T07:31:38.418Z,35.86
2018-04-24T07:32:44.200Z,35.64
2018-04-24T07:33:49.999Z,35.29
2018-04-24T07:34:55.776Z,34.80
2018-04-24T07:36:02.356Z,34.24
2018-04-24T07:37:08.162Z,33.71
2018-04-24T07:38:14.019Z,33.55
2018-04-24T07:39:20.605Z,33.07
2018-04-24T07:40:26.491Z,32.71
2018-04-24T07:41:32.264Z,32.22
2018-04-24T07:42:38.815Z,31.96
2018-04-24T07:43:45.354Z,31.94
2018-04-24T07:44:51.142Z,31.90
2018-04-24T07:45:56.917Z,31.77
2018-04-24T07:47:02.678Z,31.94
2018-04-24T07:48:08.456Z,31.87
2018-04-24T07:49:14.992Z,32.11
2018-04-24T07:50:20.795Z,32.02
2018-04-24T07:51:26.559Z,31.51
2018-04-24T07:52:32.339Z,31.69
2018-04-24T07:53:38.894Z,31.74
2018-04-24T07:54:45.443Z,31.49
2018-04-24T07:55:52.019Z,31.18
2018-04-24T07:56:58.542Z,30.99
2018-04-24T07:58:04.308Z,30.70
2018-04-24T07:59:10.851Z,30.48
2018-04-24T08:00:16.650Z,30.50
2018-04-24T08:01:22.431Z,30.38
2018-04-24T08:02:28.204Z,30.50
2018-04-24T08:03:34.744Z,30.33
2018-04-24T08:04:40.282Z,30.17
2018-04-24T08:05:46.047Z,30.63
2018-04-24T08:06:52.596Z,31.03
2018-04-24T08:07:58.343Z,31.84
2018-04-24T08:09:03.635Z,32.47
2018-04-24T08:10:09.399Z,32.02
2018-04-24T08:11:15.919Z,31.77
2018-04-24T08:12:21.687Z,31.69
2018-04-24T08:13:27.448Z,31.47
2018-04-24T08:14:34.042Z,30.98
2018-04-24T08:15:40.574Z,30.45
2018-04-24T08:16:47.104Z,29.67
2018-04-24T08:17:52.875Z,28.73
2018-04-24T08:18:58.641Z,28.28
2018-04-24T08:20:05.160Z,28.15
2018-04-24T08:21:10.609Z,27.30
2018-04-24T08:22:16.017Z,27.06
2018-04-24T08:23:21.808Z,26.48
2018-04-24T08:24:28.337Z,26.42
2018-04-24T08:25:34.089Z,26.27
2018-04-24T08:26:40.671Z,26.21
2018-04-24T08:27:47.183Z,26.37
2018-04-24T08:28:53.176Z,26.43
2018-04-24T08:29:59.695Z,26.24
2018-04-24T08:31:05.448Z,26.00
2018-04-24T08:32:11.213Z,25.49
2018-04-24T08:33:17.500Z,25.55
2018-04-24T08:34:23.275Z,25.56
2018-04-24T08:35:29.031Z,25.56
2018-04-24T08:36:34.775Z,25.45
2018-04-24T08:37:40.728Z,25.51
2018-04-24T08:38:46.491Z,25.36
2018-04-24T08:39:52.306Z,25.20
2018-04-24T08:40:58.056Z,24.96
2018-04-24T08:42:04.583Z,24.99
2018-04-24T08:43:10.328Z,25.26
2018-04-24T08:44:16.203Z,25.10
2018-04-24T08:45:22.856Z,24.55
2018-04-24T08:46:31.445Z,24.15
2018-04-24T08:47:37.188Z,23.89
2018-04-24T08:48:43.256Z,24.22
2018-04-24T08:49:49.279Z,24.17
2018-04-24T08:50:55.459Z,23.99
2018-04-24T08:52:02.277Z,23.94
2018-04-24T08:53:08.325Z,23.90
2018-04-24T08:54:14.282Z,24.05
2018-04-24T08:55:20.296Z,24.23
2018-04-24T08:56:26.743Z,24.05
2018-04-24T08:57:32.748Z,23.82
2018-04-24T08:58:38.709Z,23.67
2018-04-24T08:59:44.755Z,23.79
2018-04-24T09:00:50.631Z,23.74
2018-04-24T09:01:56.519Z,23.56
2018-04-24T09:03:04.121Z,23.34
2018-04-24T09:04:10.145Z,23.13
2018-04-24T09:05:15.952Z,23.23
2018-04-24T09:06:21.898Z,23.58
2018-04-24T09:07:27.746Z,23.48
2018-04-24T09:08:33.671Z,23.49
2018-04-24T09:09:40.144Z,23.70
2018-04-24T09:10:46.159Z,23.86
2018-04-24T09:11:53.020Z,23.82
2018-04-24T09:12:59.749Z,24.07
2018-04-24T09:14:05.857Z,24.04
2018-04-24T09:15:12.847Z,23.96
2018-04-24T09:16:18.893Z,23.69
2018-04-24T09:17:24.527Z,23.53
2018-04-24T09:18:30.577Z,23.46
2018-04-24T09:19:36.530Z,23.27
2018-04-24T09:20:42.652Z,23.19
2018-04-24T09:21:49.340Z,23.46
2018-04-24T09:22:55.270Z,23.24
2018-04-24T09:24:01.170Z,23.20
2018-04-24T09:25:07.460Z,23.20
2018-04-24T09:26:13.430Z,22.97
2018-04-24T09:27:19.372Z,23.08
2018-04-24T09:28:26.139Z,23.22
2018-04-24T09:29:31.996Z,23.04
2018-04-24T09:30:38.135Z,23.17
2018-04-24T09:31:43.975Z,22.96
2018-04-24T09:32:49.839Z,22.76
2018-04-24T09:33:55.859Z,22.42
2018-04-24T09:35:02.652Z,22.29
2018-04-24T09:36:08.681Z,22.31
2018-04-24T09:37:14.515Z,22.31
2018-04-24T09:38:21.186Z,22.55
2018-04-24T09:39:27.206Z,22.68
2018-04-24T09:40:33.890Z,22.61
2018-04-24T09:41:39.729Z,22.67
2018-04-24T09:42:46.505Z,22.87
2018-04-24T09:43:52.842Z,22.80
2018-04-24T09:44:59.117Z,22.60
2018-04-24T09:46:04.969Z,22.27
2018-04-24T09:47:11.265Z,22.19
2018-04-24T09:48:17.155Z,21.81
2018-04-24T09:49:23.097Z,21.54
2018-04-24T09:50:28.904Z,21.41
2018-04-24T09:51:34.968Z,21.56
2018-04-24T09:52:41.113Z,21.56
2018-04-24T09:53:48.692Z,21.46
2018-04-24T09:54:54.881Z,21.46
2018-04-24T09:56:00.748Z,21.27
2018-04-24T09:57:06.675Z,21.50
2018-04-24T09:58:12.719Z,21.68
2018-04-24T09:59:18.936Z,21.64
2018-04-24T10:00:30.159Z,21.51
2018-04-24T10:01:36.188Z,21.53
2018-04-24T10:02:42.163Z,21.47
2018-04-24T10:03:48.165Z,21.67
2018-04-24T10:04:54.813Z,21.78
2018-04-24T10:06:00.671Z,22.00
2018-04-24T10:07:07.290Z,22.13
2018-04-24T10:08:13.277Z,22.47
2018-04-24T10:09:19.894Z,22.75
2018-04-24T10:10:26.088Z,23.06
2018-04-24T10:11:32.085Z,23.42
2018-04-24T10:12:37.895Z,23.96
2018-04-24T10:13:44.595Z,24.60
2018-04-24T10:14:50.712Z,24.91
2018-04-24T10:15:56.837Z,25.18
2018-04-24T10:17:02.848Z,25.35
2018-04-24T10:18:08.819Z,25.64
2018-04-24T10:19:15.520Z,26.10
2018-04-24T10:20:22.201Z,26.31
2018-04-24T10:21:28.198Z,26.38
2018-04-24T10:22:34.779Z,26.56
2018-04-24T10:23:40.772Z,26.92
2018-04-24T10:24:46.782Z,27.29
2018-04-24T10:25:52.562Z,27.67
2018-04-24T10:26:58.335Z,27.86
2018-04-24T10:28:04.096Z,28.11
2018-04-24T10:29:10.611Z,28.38
2018-04-24T10:30:16.413Z,28.43
2018-04-24T10:31:22.186Z,28.59
2018-04-24T10:32:27.932Z,28.74
2018-04-24T10:33:33.682Z,28.87
2018-04-24T10:34:39.471Z,29.12
2018-04-24T10:35:45.819Z,29.23
2018-04-24T10:36:52.346Z,29.28
2018-04-24T10:37:58.098Z,29.58
2018-04-24T10:39:03.853Z,29.69
2018-04-24T10:40:09.822Z,29.89
2018-04-24T10:41:15.790Z,29.91
2018-04-24T10:42:21.619Z,30.02
2018-04-24T10:43:27.430Z,30.15
2018-04-24T10:44:33.265Z,30.23
2018-04-24T10:45:39.016Z,30.27
2018-04-24T10:46:44.833Z,30.22
2018-04-24T10:47:51.072Z,30.15
2018-04-24T10:48:57.555Z,30.28
2018-04-24T10:50:03.299Z,30.51
2018-04-24T10:51:09.141Z,30.56
2018-04-24T10:52:14.916Z,30.46
2018-04-24T10:53:21.480Z,30.68
2018-04-24T10:54:28.012Z,30.90
2018-04-24T10:55:33.770Z,30.96
2018-04-24T10:56:40.346Z,30.98
2018-04-24T10:57:46.124Z,31.10
2018-04-24T10:58:51.912Z,31.27
2018-04-24T10:59:57.669Z,31.30
2018-04-24T11:01:03.428Z,31.41
2018-04-24T11:02:09.186Z,31.48
2018-04-24T11:03:14.963Z,31.44
2018-04-24T11:04:20.741Z,31.51
2018-04-24T11:05:26.495Z,31.73
2018-04-24T11:06:32.254Z,32.00
2018-04-24T11:07:38.209Z,32.21
2018-04-24T11:08:43.988Z,32.31
2018-04-24T11:09:50.514Z,32.34
2018-04-24T11:10:56.531Z,32.50
2018-04-24T11:12:02.275Z,32.43
2018-04-24T11:13:08.027Z,32.29
2018-04-24T11:14:13.802Z,32.27
2018-04-24T11:15:19.358Z,32.14
2018-04-24T11:16:24.915Z,32.34
2018-04-24T11:17:30.434Z,32.10
2018-04-24T11:18:37.180Z,31.92
2018-04-24T11:19:42.971Z,31.78
2018-04-24T11:20:48.527Z,31.80
2018-04-24T11:21:54.383Z,31.77
2018-04-24T11:23:00.143Z,31.88
2018-04-24T11:24:05.901Z,32.03
2018-04-24T11:25:12.469Z,32.06
2018-04-24T11:26:19.043Z,32.88
2018-04-24T11:27:24.853Z,33.10
2018-04-24T11:28:30.610Z,33.57
2018-04-24T11:29:37.129Z,33.74
2018-04-24T11:30:42.953Z,33.60
2018-04-24T11:31:48.708Z,33.71
2018-04-24T11:32:54.464Z,34.12
2018-04-24T11:34:00.221Z,34.03
2018-04-24T11:35:05.407Z,34.32
2018-04-24T11:36:11.224Z,34.01
2018-04-24T11:37:17.739Z,34.05
2018-04-24T11:38:23.500Z,34.24
2018-04-24T11:39:29.246Z,34.10
2018-04-24T11:40:35.771Z,33.99
2018-04-24T11:41:41.557Z,34.06
2018-04-24T11:42:48.290Z,33.88
2018-04-24T11:43:54.091Z,34.03
2018-04-24T11:45:00.059Z,34.12
2018-04-24T11:46:05.489Z,34.05
2018-04-24T11:47:11.032Z,34.05
2018-04-24T11:48:16.788Z,34.18
2018-04-24T11:49:22.761Z,34.35
2018-04-24T11:50:29.291Z,34.42
2018-04-24T11:51:35.052Z,34.52
2018-04-24T11:52:40.872Z,34.61
2018-04-24T11:53:46.629Z,34.70
2018-04-24T11:54:53.887Z,34.88
2018-04-24T11:55:59.643Z,34.91
2018-04-24T11:57:05.475Z,35.08
2018-04-24T11:58:12.144Z,35.24
2018-04-24T11:59:19.408Z,35.58
2018-04-24T12:00:25.165Z,35.80
2018-04-24T12:01:30.930Z,35.97
2018-04-24T12:02:37.516Z,36.03
2018-04-24T12:03:43.455Z,36.12
2018-04-24T12:04:49.258Z,36.10
2018-04-24T12:05:55.006Z,36.10
2018-04-24T12:07:00.538Z,36.07
2018-04-24T12:09:08.315Z,35.99
2018-04-24T12:10:13.844Z,36.05
2018-04-24T12:11:19.595Z,36.07
2018-04-24T12:12:25.358Z,36.15
2018-04-24T12:13:31.137Z,36.22
2018-04-24T12:14:36.919Z,36.21
2018-04-24T12:15:42.772Z,36.25
2018-04-24T12:16:48.663Z,36.41
2018-04-24T12:17:54.458Z,36.33
2018-04-24T12:19:00.207Z,36.29
2018-04-24T12:20:06.761Z,36.22
2018-04-24T12:21:12.512Z,36.18
2018-04-24T12:22:18.273Z,36.20
2018-04-24T12:23:24.793Z,36.36
2018-04-24T12:24:30.574Z,36.47
2018-04-24T12:25:37.414Z,36.51
2018-04-24T12:26:43.163Z,36.63
2018-04-24T12:27:48.927Z,36.51
2018-04-24T12:28:55.459Z,36.63
2018-04-24T12:30:01.244Z,36.70
2018-04-24T12:31:07.023Z,36.86
2018-04-24T12:32:12.824Z,37.06
2018-04-24T12:33:19.367Z,37.12
2018-04-24T12:34:25.115Z,37.09
2018-04-24T12:35:31.646Z,37.04
2018-04-24T12:36:37.440Z,37.11
2018-04-24T12:37:43.955Z,37.05
2018-04-24T12:38:50.534Z,37.09
2018-04-24T12:39:56.496Z,37.01
2018-04-24T12:41:03.016Z,36.91
2018-04-24T12:42:08.782Z,36.92
2018-04-24T12:43:15.308Z,37.04
2018-04-24T12:44:21.097Z,37.07
2018-04-24T12:45:27.623Z,37.08
2018-04-24T12:46:34.883Z,37.05
2018-04-24T12:47:40.679Z,37.23
2018-04-24T12:48:47.307Z,37.38
2018-04-24T12:49:53.065Z,37.53
2018-04-24T12:50:59.582Z,37.59
2018-04-24T12:52:05.340Z,37.54
2018-04-24T12:53:11.125Z,37.58
2018-04-24T12:54:16.651Z,37.53
2018-04-24T12:55:23.171Z,37.50
2018-04-24T12:56:28.964Z,37.52
2018-04-24T12:57:34.734Z,37.78
2018-04-24T12:58:40.511Z,37.81
2018-04-24T12:59:47.040Z,37.97
2018-04-24T13:00:52.803Z,38.23
2018-04-24T13:01:58.577Z,38.33
2018-04-24T13:03:05.353Z,38.25
2018-04-24T13:04:11.126Z,38.37
2018-04-24T13:05:16.883Z,37.97
2018-04-24T13:06:22.637Z,37.93
2018-04-24T13:07:29.167Z,38.22
2018-04-24T13:08:34.914Z,38.11
2018-04-24T13:09:40.707Z,37.94
2018-04-24T13:10:47.436Z,38.07
2018-04-24T13:11:53.201Z,38.41
2018-04-24T13:12:58.951Z,38.46
2018-04-24T13:14:05.551Z,38.53
2018-04-24T13:15:11.377Z,38.68
2018-04-24T13:16:18.345Z,38.83
2018-04-24T13:17:25.056Z,39.04
2018-04-24T13:18:30.850Z,39.67
2018-04-24T13:19:36.785Z,39.65
2018-04-24T13:20:43.333Z,39.82
2018-04-24T13:21:49.086Z,40.46
2018-04-24T13:22:55.605Z,40.44
2018-04-24T13:24:02.096Z,40.98
2018-04-24T13:25:08.625Z,41.17
2018-04-24T13:26:14.420Z,41.68
2018-04-24T13:27:20.186Z,41.93
2018-04-24T13:28:25.930Z,42.75
2018-04-24T13:29:31.683Z,43.01
2018-04-24T13:30:37.439Z,43.05
2018-04-24T13:31:44.739Z,43.08
2018-04-24T13:32:50.489Z,43.25
2018-04-24T13:33:57.254Z,43.58
2018-04-24T13:35:03.025Z,43.71
2018-04-24T13:36:08.776Z,43.99
2018-04-24T13:37:14.354Z,44.23
2018-04-24T13:38:21.870Z,44.29
2018-04-24T13:39:27.639Z,44.03
2018-04-24T13:40:33.408Z,44.15
2018-04-24T13:41:39.196Z,44.12
2018-04-24T13:42:44.985Z,44.13
2018-04-24T13:43:50.522Z,43.90
2018-04-24T13:44:56.274Z,44.70
2018-04-24T13:46:02.031Z,44.96
2018-04-24T13:47:09.486Z,44.70
2018-04-24T13:48:15.269Z,44.05
2018-04-24T13:49:21.785Z,44.06
2018-04-24T13:50:27.553Z,43.71
2018-04-24T13:51:33.389Z,43.77
2018-04-24T13:52:39.308Z,43.99
2018-04-24T13:53:45.085Z,44.60
2018-04-24T13:54:50.869Z,44.31
2018-04-24T13:55:56.650Z,44.24
2018-04-24T13:57:02.401Z,44.52
2018-04-24T13:58:08.367Z,44.65
2018-04-24T13:59:14.939Z,44.62
2018-04-24T14:00:20.703Z,43.88
2018-04-24T14:01:26.459Z,43.98
2018-04-24T14:02:32.429Z,44.12
2018-04-24T14:03:38.184Z,44.81
2018-04-24T14:04:43.969Z,44.78
2018-04-24T14:05:49.739Z,45.16
2018-04-24T14:06:55.495Z,44.62
2018-04-24T14:08:01.255Z,44.37
2018-04-24T14:09:08.759Z,43.94
2018-04-24T14:10:14.579Z,43.70
2018-04-24T14:11:21.376Z,43.81
2018-04-24T14:12:28.123Z,44.13
2018-04-24T14:13:33.968Z,44.18
2018-04-24T14:14:40.280Z,44.34
2018-04-24T14:15:46.138Z,43.98